createdAt,value
2022-09-07T00:00:58.031Z,1391.88
2022-09-07T00:03:24.736Z,1460.15
2022-09-07T00:05:51.827Z,1335.75
2022-09-07T00:08:20.696Z,1147.53
2022-09-07T00:10:59.446Z,1019.47
2022-09-07T00:13:30.439Z,1000.55
2022-09-07T00:15:57.103Z,930.17
2022-09-07T00:18:23.934Z,1117.80
2022-09-07T00:21:00.980Z,1153.95
2022-09-07T00:23:28.746Z,973.88
2022-09-07T00:26:02.491Z,1037.65
2022-09-07T00:28:29.795Z,893.60
2022-09-07T00:30:56.445Z,775.25
2022-09-07T00:33:23.292Z,882.88
2022-09-07T00:35:50.700Z,891.70
2022-09-07T00:38:17.183Z,748.40
2022-09-07T00:40:43.860Z,494.98
2022-09-07T00:43:16.958Z,471.58
2022-09-07T00:45:43.394Z,319.10
2022-09-07T00:48:17.062Z,260.92
2022-09-07T00:50:48.544Z,260.88
2022-09-07T00:53:23.520Z,310.23
2022-09-07T00:55:52.308Z,266.85
2022-09-07T00:58:21.712Z,149.27
2022-09-07T01:00:49.916Z,343.45
2022-09-07T01:03:20.587Z,284.05
2022-09-07T01:05:55.313Z,248.23
2022-09-07T01:08:22.807Z,87.72
2022-09-07T01:10:49.373Z,81.10
2022-09-07T01:13:16.358Z,92.47
2022-09-07T01:16:16.447Z,230.98
2022-09-07T01:18:46.999Z,81.57
2022-09-07T01:21:25.246Z,283.70
2022-09-07T01:24:19.912Z,254.05
2022-09-07T01:27:30.219Z,109.93
2022-09-07T01:30:04.518Z,51.65
2022-09-07T01:32:52.663Z,96.82
2022-09-07T01:35:24.964Z,93.22
2022-09-07T01:38:13.166Z,51.45
2022-09-07T01:41:13.217Z,47.05
2022-09-07T01:43:50.408Z,54.97
2022-09-07T01:46:25.138Z,67.47
2022-09-07T01:48:54.250Z,67.32
2022-09-07T01:51:27.936Z,55.65
2022-09-07T01:53:58.510Z,66.97
2022-09-07T01:56:35.103Z,47.45
2022-09-07T01:59:14.466Z,46.65
2022-09-07T02:01:47.351Z,47.22
2022-09-07T02:04:19.929Z,47.22
2022-09-07T02:06:58.441Z,45.92
2022-09-07T02:09:38.556Z,46.95
2022-09-07T02:12:16.517Z,54.45
2022-09-07T02:14:51.903Z,45.85
2022-09-07T02:17:33.736Z,46.58
2022-09-07T02:20:13.044Z,60.58
2022-09-07T02:22:45.153Z,44.65
2022-09-07T02:25:19.276Z,45.25
2022-09-07T02:27:51.981Z,44.70
2022-09-07T02:30:18.450Z,44.42
2022-09-07T02:32:44.986Z,49.30
2022-09-07T02:35:12.209Z,44.40
2022-09-07T02:37:41.176Z,44.17
2022-09-07T02:40:08.787Z,45.15
2022-09-07T02:42:36.674Z,46.95
2022-09-07T02:45:07.432Z,45.55
2022-09-07T02:48:09.366Z,45.40
2022-09-07T02:50:58.662Z,46.13
2022-09-07T02:53:49.012Z,41.28
2022-09-07T02:56:39.230Z,42.38
2022-09-07T02:59:44.379Z,45.33
2022-09-07T03:02:29.778Z,43.85
2022-09-07T03:05:05.315Z,44.88
2022-09-07T03:07:54.950Z,45.67
2022-09-07T03:10:21.793Z,43.95
2022-09-07T03:12:49.807Z,42.65
2022-09-07T03:15:22.270Z,42.67
2022-09-07T03:17:49.110Z,40.70
2022-09-07T03:20:17.090Z,42.72
2022-09-07T03:22:44.638Z,44.67
2022-09-07T03:25:11.816Z,42.50
2022-09-07T03:27:38.373Z,40.45
2022-09-07T03:30:07.017Z,44.42
2022-09-07T03:32:36.077Z,41.10
2022-09-07T03:35:04.683Z,44.25
2022-09-07T03:37:31.087Z,43.10
2022-09-07T03:39:57.904Z,41.25
2022-09-07T03:42:24.395Z,44.58
2022-09-07T03:44:50.846Z,44.97
2022-09-07T03:47:17.892Z,45.08
2022-09-07T03:49:44.323Z,42.17
2022-09-07T03:52:11.565Z,46.53
2022-09-07T03:54:39.744Z,46.20
2022-09-07T03:57:06.461Z,47.15
2022-09-07T03:59:33.079Z,47.75
2022-09-07T04:01:59.700Z,49.92
2022-09-07T04:04:26.124Z,47.38
2022-09-07T04:06:52.669Z,50.25
2022-09-07T04:09:19.218Z,48.63
2022-09-07T04:11:45.664Z,47.97
2022-09-07T04:14:12.130Z,47.97
2022-09-07T04:16:39.343Z,43.58
2022-09-07T04:19:06.015Z,42.45
2022-09-07T04:21:33.962Z,43.17
2022-09-07T04:24:00.866Z,41.67
2022-09-07T04:26:30.379Z,42.33
2022-09-07T04:28:57.818Z,42.85
2022-09-07T04:31:24.704Z,45.70
2022-09-07T04:33:51.983Z,42.72
2022-09-07T04:36:19.304Z,45.15
2022-09-07T04:38:46.547Z,42.80
2022-09-07T04:41:18.419Z,42.95
2022-09-07T04:43:46.325Z,44.53
2022-09-07T04:46:30.485Z,45.65
2022-09-07T04:48:59.073Z,43.33
2022-09-07T04:51:28.416Z,49.35
2022-09-07T04:53:56.336Z,46.63
2022-09-07T04:56:23.357Z,45.13
2022-09-07T04:58:50.593Z,46.42
2022-09-07T05:01:19.823Z,46.38
2022-09-07T05:03:47.285Z,48.28
2022-09-07T05:06:16.199Z,46.30
2022-09-07T05:08:48.698Z,43.40
2022-09-07T05:11:16.099Z,49.50
2022-09-07T05:13:42.583Z,49.35
2022-09-07T05:16:11.660Z,48.00
2022-09-07T05:18:38.181Z,49.90
2022-09-07T05:21:25.780Z,45.80
2022-09-07T05:23:53.537Z,47.25
2022-09-07T05:26:22.158Z,47.78
2022-09-07T05:28:49.714Z,51.28
2022-09-07T05:31:19.232Z,51.00
2022-09-07T05:36:40.918Z,53.13
2022-09-07T05:39:08.507Z,67.60
2022-09-07T05:41:35.207Z,68.03
2022-09-07T05:46:48.591Z,63.35
2022-09-07T05:49:14.951Z,69.20
2022-09-07T05:51:41.354Z,82.22
2022-09-07T05:54:07.797Z,77.97
2022-09-07T05:56:35.907Z,85.95
2022-09-07T05:59:02.306Z,80.75
2022-09-07T06:01:28.759Z,110.68
2022-09-07T06:03:55.121Z,81.88
2022-09-07T06:06:21.602Z,118.90
2022-09-07T06:08:50.550Z,143.65
2022-09-07T06:11:19.222Z,97.30
2022-09-07T06:13:45.819Z,74.22
2022-09-07T06:16:14.066Z,78.32
2022-09-07T06:18:43.062Z,78.22
2022-09-07T06:21:15.170Z,81.25
2022-09-07T06:23:43.092Z,67.78
2022-09-07T06:26:10.552Z,59.05
2022-09-07T06:28:39.507Z,59.72
2022-09-07T06:31:09.979Z,56.85
2022-09-07T06:33:36.766Z,61.22
2022-09-07T06:36:12.243Z,65.40
2022-09-07T06:38:39.175Z,72.65
2022-09-07T06:43:57.006Z,57.72
2022-09-07T06:49:10.664Z,58.72
2022-09-07T06:51:37.090Z,55.70
2022-09-07T06:56:51.745Z,58.15
2022-09-07T06:59:18.167Z,70.40
2022-09-07T07:01:44.563Z,81.78
2022-09-07T07:04:11.115Z,91.07
2022-09-07T07:06:39.104Z,100.78
2022-09-07T07:09:08.049Z,102.53
2022-09-07T07:11:37.006Z,118.45
2022-09-07T07:14:03.586Z,132.70
2022-09-07T07:16:30.019Z,177.27
2022-09-07T07:18:56.818Z,180.73
2022-09-07T07:21:23.617Z,203.27
2022-09-07T07:23:51.964Z,237.63
2022-09-07T07:26:26.674Z,291.75
2022-09-07T07:29:03.539Z,318.00
2022-09-07T07:31:32.512Z,382.80
2022-09-07T07:33:59.076Z,390.15
2022-09-07T07:36:27.261Z,477.20
2022-09-07T07:44:16.729Z,574.65
2022-09-07T07:46:43.246Z,608.67
2022-09-07T07:49:09.971Z,625.75
2022-09-07T07:54:22.859Z,543.30
2022-09-07T07:56:49.218Z,580.25
2022-09-07T07:59:15.995Z,630.95
2022-09-07T08:01:43.658Z,633.35
2022-09-07T08:04:10.254Z,618.05
2022-09-07T08:06:37.978Z,515.15
2022-09-07T08:09:04.291Z,528.55
2022-09-07T08:11:31.134Z,531.65
2022-09-07T08:14:00.089Z,545.97
2022-09-07T08:16:26.654Z,555.20
2022-09-07T08:18:53.607Z,486.40
2022-09-07T08:21:20.075Z,457.23
2022-09-07T08:23:46.432Z,481.92
2022-09-07T08:26:12.768Z,506.92
2022-09-07T08:28:41.008Z,545.20
2022-09-07T08:31:10.287Z,500.02
2022-09-07T08:33:37.869Z,508.58
2022-09-07T08:36:07.534Z,481.63
2022-09-07T08:38:35.640Z,449.58
2022-09-07T08:41:03.814Z,483.88
2022-09-07T08:43:53.766Z,460.52
2022-09-07T08:46:45.084Z,399.02
2022-09-07T08:49:35.198Z,469.95
2022-09-07T08:52:12.364Z,518.70
2022-09-07T08:54:42.039Z,460.02
2022-09-07T08:57:23.955Z,560.88
2022-09-07T09:00:26.434Z,523.67
2022-09-07T09:06:20.639Z,329.08
2022-09-07T09:08:46.969Z,195.73
2022-09-07T09:11:35.119Z,94.20
2022-09-07T09:14:26.324Z,162.63
2022-09-07T09:16:59.170Z,162.82
2022-09-07T09:19:47.358Z,71.05
2022-09-07T09:22:22.259Z,65.32
2022-09-07T09:24:53.168Z,64.97
2022-09-07T09:27:19.535Z,56.60
2022-09-07T09:29:45.928Z,59.25
2022-09-07T09:32:33.905Z,58.90
2022-09-07T09:35:03.209Z,57.63
2022-09-07T09:37:34.642Z,48.28
2022-09-07T09:40:02.784Z,56.15
2022-09-07T09:42:33.053Z,47.58
2022-09-07T09:45:16.293Z,49.13
2022-09-07T09:47:50.173Z,48.53
2022-09-07T09:53:40.028Z,48.03
2022-09-07T09:56:07.510Z,52.50
2022-09-07T10:01:30.977Z,43.25
2022-09-07T10:03:59.589Z,40.22
2022-09-07T10:06:27.846Z,51.10
2022-09-07T10:08:57.771Z,53.50
2022-09-07T10:14:34.706Z,44.78
2022-09-07T10:17:10.226Z,48.42
2022-09-07T10:19:39.559Z,43.08
2022-09-07T10:22:32.193Z,41.40
2022-09-07T10:25:00.782Z,35.97
2022-09-07T10:27:29.851Z,40.97
2022-09-07T10:29:56.315Z,42.35
2022-09-07T10:32:26.435Z,44.47
2022-09-07T10:35:16.204Z,65.07
2022-09-07T10:37:52.740Z,70.22
2022-09-07T10:40:25.067Z,63.85
2022-09-07T10:43:23.514Z,57.63
2022-09-07T10:46:11.545Z,61.92
2022-09-07T10:49:12.585Z,48.78
2022-09-07T10:52:03.507Z,35.72
2022-09-07T10:54:54.701Z,41.72
2022-09-07T10:57:54.000Z,37.15
2022-09-07T11:00:22.461Z,34.38
2022-09-07T11:06:02.088Z,28.35
2022-09-07T11:14:31.336Z,33.22
2022-09-07T11:17:02.727Z,20.60
2022-09-07T11:19:36.166Z,31.23
2022-09-07T11:24:46.260Z,19.05
2022-09-07T11:27:18.954Z,21.35
2022-09-07T11:30:04.955Z,19.88
2022-09-07T11:32:37.394Z,19.17
2022-09-07T11:35:24.803Z,19.00
2022-09-07T11:37:59.202Z,17.98
2022-09-07T11:40:42.053Z,20.52
2022-09-07T11:43:22.693Z,16.98
2022-09-07T11:45:56.681Z,17.23
2022-09-07T11:48:35.239Z,17.75
2022-09-07T11:51:09.118Z,15.93
2022-09-07T11:53:46.182Z,20.00
2022-09-07T11:56:21.568Z,18.35
2022-09-07T11:59:06.119Z,15.75
2022-09-07T12:01:45.543Z,20.38
2022-09-07T12:04:31.916Z,16.63
2022-09-07T12:07:35.057Z,18.73
2022-09-07T12:10:35.878Z,14.98
2022-09-07T12:13:19.951Z,16.30
2022-09-07T12:15:57.325Z,17.48
2022-09-07T12:18:49.832Z,17.42
2022-09-07T12:21:41.327Z,17.13
2022-09-07T12:24:53.209Z,17.15
2022-09-07T12:27:19.478Z,15.25
2022-09-07T12:29:52.404Z,15.93
2022-09-07T12:32:54.916Z,15.73
2022-09-07T12:35:31.035Z,14.13
2022-09-07T12:37:58.300Z,15.38
2022-09-07T12:40:27.814Z,12.23
2022-09-07T12:43:12.535Z,11.35
2022-09-07T12:45:38.891Z,9.48
2022-09-07T12:48:17.446Z,10.10
2022-09-07T12:51:09.827Z,14.65
2022-09-07T12:53:39.202Z,14.05
2022-09-07T12:56:31.158Z,12.43
2022-09-07T12:59:25.798Z,13.60
2022-09-07T13:02:23.993Z,11.40
2022-09-07T13:05:19.584Z,11.02
2022-09-07T13:08:14.294Z,11.30
2022-09-07T13:10:44.295Z,9.88
2022-09-07T13:16:13.728Z,9.52
2022-09-07T13:18:43.685Z,13.38
2022-09-07T13:21:10.780Z,16.30
2022-09-07T13:23:45.737Z,10.02
2022-09-07T13:26:33.184Z,10.15
2022-09-07T13:29:04.311Z,15.63
2022-09-07T13:31:52.956Z,10.15
2022-09-07T13:34:34.597Z,10.55
2022-09-07T13:37:03.123Z,10.68
2022-09-07T13:39:38.573Z,10.15
2022-09-07T13:42:05.738Z,10.55
2022-09-07T13:44:34.333Z,10.52
2022-09-07T13:47:29.725Z,9.80
2022-09-07T13:50:10.345Z,10.20
2022-09-07T13:52:55.054Z,10.43
2022-09-07T13:55:40.112Z,10.93
2022-09-07T13:58:13.297Z,10.98
2022-09-07T14:00:54.165Z,10.35
2022-09-07T14:03:22.360Z,10.77
2022-09-07T14:05:48.826Z,9.00
2022-09-07T14:08:29.438Z,10.35
2022-09-07T14:10:55.801Z,9.25
2022-09-07T14:13:22.208Z,9.23
2022-09-07T14:15:50.281Z,8.27
2022-09-07T14:18:22.362Z,8.55
2022-09-07T14:20:51.696Z,8.25
2022-09-07T14:23:27.829Z,8.82
2022-09-07T14:26:18.956Z,9.55
2022-09-07T14:28:54.227Z,9.60
2022-09-07T14:31:23.245Z,10.80
2022-09-07T14:33:58.345Z,9.82
2022-09-07T14:36:45.380Z,10.65
2022-09-07T14:39:15.433Z,9.60
2022-09-07T14:41:43.220Z,9.65
2022-09-07T14:44:31.894Z,10.77
2022-09-07T14:47:02.173Z,9.23
2022-09-07T14:49:28.883Z,10.18
2022-09-07T14:51:55.828Z,9.80
2022-09-07T14:54:27.314Z,12.85
2022-09-07T14:57:09.131Z,9.25
2022-09-07T14:59:37.217Z,10.65
2022-09-07T15:02:18.720Z,14.77
2022-09-07T15:05:09.324Z,13.75
2022-09-07T15:07:54.966Z,13.38
2022-09-07T15:10:21.234Z,13.15
2022-09-07T15:12:49.877Z,11.82
2022-09-07T15:15:21.805Z,10.68
2022-09-07T15:17:48.763Z,10.55
2022-09-07T15:20:31.806Z,11.15
2022-09-07T15:22:58.862Z,8.98
2022-09-07T15:25:25.266Z,9.57
2022-09-07T15:27:51.848Z,8.40
2022-09-07T15:30:18.222Z,11.32
2022-09-07T15:32:44.630Z,15.80
2022-09-07T15:35:11.073Z,14.32
2022-09-07T15:40:26.154Z,10.25
2022-09-07T15:43:00.518Z,17.02
2022-09-07T15:45:27.251Z,11.55
2022-09-07T15:47:53.783Z,12.35
2022-09-07T15:50:23.127Z,13.10
2022-09-07T15:52:49.774Z,12.82
2022-09-07T15:55:17.380Z,12.25
2022-09-07T15:58:02.233Z,10.85
2022-09-07T16:00:30.674Z,9.32
2022-09-07T16:03:06.058Z,9.30
2022-09-07T16:05:33.598Z,8.60
2022-09-07T16:10:53.508Z,10.68
2022-09-07T16:13:20.438Z,8.32
2022-09-07T16:15:48.686Z,9.90
2022-09-07T16:18:17.478Z,8.88
2022-09-07T16:20:44.938Z,8.18
2022-09-07T16:23:14.693Z,8.70
2022-09-07T16:25:43.081Z,8.07
2022-09-07T16:28:10.026Z,7.72
2022-09-07T16:30:40.245Z,10.30
2022-09-07T16:33:06.674Z,12.07
2022-09-07T16:35:33.154Z,13.27
2022-09-07T16:40:46.377Z,9.77
2022-09-07T16:43:13.041Z,9.23
2022-09-07T16:48:25.672Z,10.57
2022-09-07T16:51:00.377Z,9.45
2022-09-07T16:53:34.259Z,12.95
2022-09-07T16:56:09.231Z,9.80
2022-09-07T16:58:44.729Z,9.05
2022-09-07T17:01:16.495Z,8.15
2022-09-07T17:03:43.414Z,9.30
2022-09-07T17:06:11.498Z,10.77
2022-09-07T17:08:39.701Z,10.52
2022-09-07T17:11:10.478Z,15.35
2022-09-07T17:13:38.392Z,13.93
2022-09-07T17:16:10.080Z,13.68
2022-09-07T17:21:23.938Z,14.10
2022-09-07T17:23:55.381Z,15.05
2022-09-07T17:26:23.244Z,14.88
2022-09-07T17:28:51.632Z,19.42
2022-09-07T17:34:13.317Z,14.93
2022-09-07T17:36:40.330Z,15.75
2022-09-07T17:39:16.273Z,19.67
2022-09-07T17:41:44.488Z,18.15
2022-09-07T17:44:10.904Z,15.70
2022-09-07T17:46:37.358Z,23.10
2022-09-07T17:49:05.143Z,22.73
2022-09-07T17:51:32.324Z,22.70
2022-09-07T17:54:02.552Z,25.95
2022-09-07T17:56:29.866Z,26.40
2022-09-07T18:00:10.628Z,23.25
2022-09-07T18:01:42.740Z,20.27
2022-09-07T18:04:09.903Z,24.17
2022-09-07T18:06:37.752Z,25.38
2022-09-07T18:09:05.359Z,21.58
2022-09-07T18:11:48.714Z,18.25
2022-09-07T18:14:15.569Z,18.30
2022-09-07T18:16:43.537Z,22.02
2022-09-07T18:19:11.307Z,22.58
2022-09-07T18:21:40.965Z,22.45
2022-09-07T18:24:16.997Z,23.00
2022-09-07T18:26:49.623Z,25.20
2022-09-07T18:29:28.132Z,20.83
2022-09-07T18:31:56.272Z,20.20
2022-09-07T18:34:23.065Z,17.23
2022-09-07T18:36:50.075Z,16.95
2022-09-07T18:39:16.610Z,17.48
2022-09-07T18:41:42.987Z,15.85
2022-09-07T18:46:55.953Z,22.98
2022-09-07T18:49:22.538Z,20.70
2022-09-07T18:54:35.254Z,19.00
2022-09-07T18:57:01.652Z,17.88
2022-09-07T18:59:29.541Z,17.35
2022-09-07T19:02:01.330Z,19.20
2022-09-07T19:05:49.733Z,18.67
2022-09-07T19:07:20.266Z,18.30
2022-09-07T19:09:47.958Z,18.90
2022-09-07T19:12:14.310Z,20.95
2022-09-07T19:14:42.146Z,25.40
2022-09-07T19:17:10.700Z,21.80
2022-09-07T19:19:37.561Z,21.65
2022-09-07T19:22:03.948Z,25.95
2022-09-07T19:24:31.714Z,22.20
2022-09-07T19:27:00.389Z,21.25
2022-09-07T19:29:27.685Z,20.35
2022-09-07T19:32:11.777Z,22.63
2022-09-07T19:34:41.403Z,21.60
2022-09-07T19:37:10.229Z,21.55
2022-09-07T19:39:36.949Z,26.75
2022-09-07T19:42:05.170Z,23.15
2022-09-07T19:44:32.448Z,23.40
2022-09-07T19:47:22.153Z,28.65
2022-09-07T19:49:48.543Z,23.77
2022-09-07T19:52:15.301Z,20.70
2022-09-07T19:54:41.613Z,25.95
2022-09-07T19:57:07.963Z,23.95
2022-09-07T19:59:34.297Z,22.60
2022-09-07T20:02:00.700Z,25.30
2022-09-07T20:04:28.100Z,22.00
2022-09-07T20:06:54.516Z,25.25
2022-09-07T20:09:20.860Z,25.42
2022-09-07T20:11:47.917Z,25.83
2022-09-07T20:14:15.644Z,28.25
2022-09-07T20:16:42.103Z,28.92
2022-09-07T20:19:11.493Z,27.50
2022-09-07T20:21:37.903Z,24.63
2022-09-07T20:24:04.544Z,24.23
2022-09-07T20:26:32.191Z,23.85
2022-09-07T20:29:16.844Z,23.60
2022-09-07T20:31:46.202Z,28.75
2022-09-07T20:34:12.875Z,31.85
2022-09-07T20:36:39.534Z,31.05
2022-09-07T20:39:06.158Z,35.45
2022-09-07T20:41:33.976Z,34.13
2022-09-07T20:44:02.244Z,36.95
2022-09-07T20:46:29.701Z,33.75
2022-09-07T20:48:56.165Z,34.08
2022-09-07T20:51:23.250Z,32.33
2022-09-07T20:53:49.886Z,33.58
2022-09-07T20:56:22.299Z,35.75
2022-09-07T20:58:53.484Z,35.83
2022-09-07T21:01:21.054Z,35.15
2022-09-07T21:03:49.986Z,39.58
2022-09-07T21:06:17.302Z,37.38
2022-09-07T21:08:44.944Z,39.30
2022-09-07T21:11:19.057Z,36.10
2022-09-07T21:13:46.589Z,39.67
2022-09-07T21:16:15.500Z,38.72
2022-09-07T21:18:44.217Z,42.63
2022-09-07T21:21:20.437Z,39.17
2022-09-07T21:23:47.526Z,40.25
2022-09-07T21:26:13.945Z,38.25
2022-09-07T21:28:40.252Z,41.83
2022-09-07T21:31:08.812Z,40.70
2022-09-07T21:33:35.997Z,38.05
2022-09-07T21:36:07.834Z,38.40
2022-09-07T21:38:35.487Z,38.13
2022-09-07T21:41:13.151Z,39.42
2022-09-07T21:43:40.151Z,39.38
2022-09-07T21:46:13.886Z,36.67
2022-09-07T21:48:40.491Z,37.45
2022-09-07T21:51:07.010Z,35.72
2022-09-07T21:53:34.256Z,40.78
2022-09-07T21:56:05.914Z,37.80
2022-09-07T21:58:33.371Z,38.45
2022-09-07T22:01:07.768Z,34.25
2022-09-07T22:06:03.866Z,35.53
2022-09-07T22:08:30.908Z,37.45
2022-09-07T22:11:04.885Z,39.13
2022-09-07T22:13:31.282Z,36.38
2022-09-07T22:15:57.702Z,38.28
2022-09-07T22:18:24.020Z,35.92
2022-09-07T22:21:01.216Z,38.30
2022-09-07T22:23:30.022Z,35.42
2022-09-07T22:25:56.495Z,33.90
2022-09-07T22:28:22.801Z,30.55
2022-09-07T22:30:49.116Z,33.45
2022-09-07T22:33:15.411Z,35.08
2022-09-07T22:35:41.790Z,34.33
2022-09-07T22:38:08.082Z,28.13
2022-09-07T22:40:34.519Z,30.73
2022-09-07T22:43:00.827Z,30.67
2022-09-07T22:45:27.693Z,31.63
2022-09-07T22:47:53.995Z,31.52
2022-09-07T22:50:20.327Z,33.40
2022-09-07T22:52:46.954Z,34.70
2022-09-07T22:55:13.267Z,30.95
2022-09-07T22:57:39.622Z,30.83
2022-09-07T23:00:07.355Z,32.80
2022-09-07T23:02:33.666Z,33.55
2022-09-07T23:05:00.028Z,33.53
2022-09-07T23:07:26.434Z,33.80
2022-09-07T23:09:52.724Z,33.70
2022-09-07T23:12:19.031Z,33.05
2022-09-07T23:14:45.358Z,33.47
2022-09-07T23:17:12.298Z,32.90
2022-09-07T23:19:38.720Z,33.53
2022-09-07T23:22:06.283Z,33.90
2022-09-07T23:24:32.699Z,33.03
2022-09-07T23:26:59.079Z,31.45
2022-09-07T23:29:25.362Z,31.63
2022-09-07T23:31:51.745Z,33.58
2022-09-07T23:34:18.261Z,32.65
2022-09-07T23:36:44.818Z,32.85
2022-09-07T23:39:11.247Z,32.28
2022-09-07T23:41:37.587Z,33.78
2022-09-07T23:44:04.031Z,32.63
2022-09-07T23:46:30.468Z,32.90
2022-09-07T23:48:56.823Z,32.53
2022-09-07T23:51:24.737Z,33.97
2022-09-07T23:53:52.258Z,31.90
2022-09-07T23:56:19.025Z,33.58
2022-09-07T23:58:45.398Z,31.52
